Data ze zpráv METAR

Na této stránce "Data ze zpráv METAR" si můžete prohlédnout aktuální data o počasí z českých letišť.

LKKB - Kbely, Czech Republic
Distance from station: JJZ 98km
Aktualizováno v: 20/01/2018 01:00
Jasno
Jasno
 Vítr od JJZ
Vítr: JJZ 11 km/h
Teplota vzduchu: -1°C
Wind Chill: -5°C
Rosný bod: -3°C
Vlhkost: 86%
Tlak vzduchu: 1011 hPa
Souhrn: Jasno
Visibility: greater than 10 km
2018/01/20 00:00 LKKB 200000Z 21006KT CAVOK M01/M03 Q1011
LKPR - Prague/Ruzyne, Czech Republic
Distance from station: JJZ 108km
Aktualizováno v: 20/01/2018 01:30
Jasno
Jasno
 Vítr od J
Vítr: J 7 km/h
Teplota vzduchu: -2°C
Wind Chill: -6°C
Rosný bod: -3°C
Vlhkost: 93%
Tlak vzduchu: 1010 hPa
Souhrn: Jasno
Visibility: greater than 10 km
2018/01/20 00:30 LKPR 200030Z 17004KT CAVOK M02/M03 Q1010 R24/29//95 R30/390192 NOSIG
 
LKPD - Pardubice, Czech Republic
Distance from station: JJV 111km
Aktualizováno v: 20/01/2018 01:00
Zataženo
Zataženo
 Vítr od varies
Vítr: varies 2 km/h
Teplota vzduchu: 1°C
Rosný bod: 0°C
Vlhkost: 93%
Tlak vzduchu: 1011 hPa
Clouds: Zataženo
Visibility: 10 km
Cloud details: Polojasno 975 m
Zataženo 2134 m
2018/01/20 00:00 LKPD 200000Z VRB01KT 9999 SCT032 OVC070 01/00 Q1011 RMK BLU
LKCV - Caslav, Czech Republic
Distance from station: JJV 113km
Aktualizováno v: 20/01/2018 01:00
Jasno
Jasno
 Vítr od JZ
Vítr: JZ 11 km/h
Teplota vzduchu: 2°C
Wind Chill: -1°C
Rosný bod: -1°C
Vlhkost: 81%
Tlak vzduchu: 1011 hPa
Souhrn: Jasno
Visibility: greater than 10 km
2018/01/20 00:00 LKCV 200000Z 23006KT CAVOK 02/M01 Q1011 NOSIG RMK BLU BLU
 
LKKV - Karlovy Vary, Czech Republic
Distance from station: ZJZ 173km
Aktualizováno v: 20/01/2018 01:00
Polojasno
Polojasno
 Vítr od Z
Vítr: Z 7 km/h
Teplota vzduchu: -1°C
Wind Chill: -4°C
Rosný bod: -2°C
Vlhkost: 93%
Tlak vzduchu: 1008 hPa
Clouds: Polojasno
Visibility: 10 km
Cloud details: Polojasno 335 m
2018/01/20 00:00 LKKV 200000Z 26004KT 230V290 9999 SCT011 M01/M02 Q1008 R29///////
LKLN - Plzen Line, Czech Republic
Distance from station: JZ 189km
Aktualizováno v: 20/01/2018 01:00
Zataženo
Zataženo
 Vítr od calm
Vítr: Bezvětří
Teplota vzduchu: -1°C
Rosný bod: -2°C
Vlhkost: 93%
Tlak vzduchu: 1011 hPa
Clouds: Zataženo
Visibility: 10 km
Cloud details: Zataženo 1463 m
2018/01/20 00:00 LKLN 200000Z AUTO 00000KT 9999 OVC048 M01/M02 Q1011
 
LKNA - Namest, Czech Republic
Distance from station: JJV 209km
Aktualizováno v: 20/01/2018 01:00
Jasno
Jasno
 Vítr od JZ
Vítr: JZ 11 km/h
Teplota vzduchu: -3°C
Wind Chill: -7°C
Rosný bod: -4°C
Vlhkost: 93%
Tlak vzduchu: 1010 hPa
Souhrn: Jasno
Visibility: greater than 10 km
2018/01/20 00:00 LKNA 200000Z 23006KT CAVOK M03/M04 Q1010
LKTB - Brno/Turany, Czech Republic
Distance from station: JJV 230km
Aktualizováno v: 20/01/2018 01:30
Jasno
Jasno
 Vítr od JZ
Vítr: JZ 4 km/h
Teplota vzduchu: 0°C
Rosný bod: -2°C
Vlhkost: 87%
Tlak vzduchu: 1011 hPa
Souhrn: Jasno
Visibility: greater than 10 km
2018/01/20 00:30 LKTB 200030Z 23002KT CAVOK M00/M02 Q1011 R27/39//94 NOSIG